South Bend Regional Airport South Bend US
ICAO: KSBN
IATA: SBN
Category: Large
Scheduled Services: Yes

Elevation: 799 ft
TransAlt. 18000 ft.

Airport Communications:
APP/DEP:118.55
ATIS:118.15
CLNC DEL:121.9
CTAF:118.9
GND:121.7
TERRE HAUTE RDO:122.6
TWR:118.9
UNICOM:122.95

KSBN Zoom In..

If you have problems with the map follow the link
https://www.worldairports.se/pages/airport.php?
ICAO=KSBN

Runways:

(A) RW 09L length 4300 ft width 75 ft
---- / hdg 92

(B) RW 09R length 8414 ft width 150 ft
ILS 109.30 / hdg 92

(C) RW 18 length 7101 ft width 150 ft
---- / hdg 182

(D) RW 27L length 8414 ft width 150 ft
ILS 109.30 / hdg 272

(E) RW 27R length 4300 ft width 75 ft
---- / hdg 272

(F) RW 36 length 7101 ft width 150 ft
---- / hdg 2

Location; KSBN
Day. 12 / Time. 23.54 Zulu
* Altimeter: 30.16
* Temperature: 04° c. 39.2°f.
* Wind from: 180° Speed 13 kn.
Dewpoint: -04° c.
Visibility: 10 Statute Miles.
Clouds: Overcast 8500 ft.

KSBN 122354Z 18013KT 10SM OVC085 04/M04 A3016 RMK AO2 SLP222 T00391039 10056 20022 56009


Wind From 180°
Speed 13 kn.

 
 
jpsmedia worldairports.se 2019   terms of use